Time;durP1;ratioP1;P1;durP2;ratioP2;P2;SDS_P1;SDS_P2;PMS_P1;PMS_P2;Temp;Humidity;BMP_temperature;BMP_pressure;BME280_temperature;BME280_humidity;BME280_pressure;Samples;Min_cycle;Max_cycle;Signal;HPM_P1;HPM_P2
2022/08/27 00:02:01;;;;;;;10.73;8.60;;;21.70;99.90;;;;;;5037542;28;20230;-59
2022/08/27 00:04:28;;;;;;;14.25;8.85;;;21.70;99.90;;;;;;5037106;28;20268;-59
2022/08/27 00:06:55;;;;;;;11.48;8.93;;;21.70;99.90;;;;;;5037575;28;20210;-59
2022/08/27 00:09:22;;;;;;;10.60;9.38;;;21.60;99.90;;;;;;5036649;28;20289;-59
2022/08/27 00:11:50;;;;;;;10.95;9.38;;;21.70;99.90;;;;;;5036749;28;20242;-58
2022/08/27 00:14:17;;;;;;;16.60;10.32;;;21.70;99.90;;;;;;5037667;28;20213;-59
2022/08/27 00:16:44;;;;;;;14.18;10.45;;;21.60;99.90;;;;;;5037127;28;20238;-59
2022/08/27 00:19:12;;;;;;;12.32;10.82;;;21.70;99.90;;;;;;5036850;28;20256;-58
2022/08/27 00:21:38;;;;;;;13.98;10.68;;;21.60;99.90;;;;;;5036828;28;20320;-58
2022/08/27 00:24:06;;;;;;;13.02;11.30;;;21.60;99.90;;;;;;5037265;28;20213;-58
2022/08/27 00:26:33;;;;;;;11.77;10.57;;;21.60;99.90;;;;;;5037113;28;20234;-61
2022/08/27 00:29:02;;;;;;;16.05;11.40;;;21.70;99.90;;;;;;5036741;28;20301;-61
2022/08/27 00:31:29;;;;;;;14.55;12.48;;;21.70;99.90;;;;;;5037541;28;20235;-60
2022/08/27 00:33:56;;;;;;;13.80;12.27;;;21.70;99.90;;;;;;5036415;28;20670;-61
2022/08/27 00:36:24;;;;;;;16.48;12.95;;;21.70;99.90;;;;;;5036522;28;20708;-61
2022/08/27 00:38:51;;;;;;;18.35;13.35;;;21.70;99.90;;;;;;5036262;28;20218;-60
2022/08/27 00:41:19;;;;;;;15.43;13.52;;;21.70;99.90;;;;;;5036298;28;20313;-60
2022/08/27 00:43:50;;;;;;;15.75;13.88;;;21.60;99.90;;;;;;5036556;28;20206;-61
2022/08/27 00:46:23;;;;;;;17.98;14.25;;;21.60;99.90;;;;;;5036529;28;20202;-60
2022/08/27 00:48:52;;;;;;;17.50;14.25;;;21.70;99.90;;;;;;5036421;28;20203;-61
2022/08/27 00:51:21;;;;;;;19.88;15.20;;;21.70;99.90;;;;;;5037048;28;20230;-60
2022/08/27 00:53:48;;;;;;;15.82;14.13;;;21.70;99.90;;;;;;5036666;28;20274;-61
2022/08/27 00:56:20;;;;;;;19.38;15.63;;;21.70;99.90;;;;;;5036113;28;20260;-60
2022/08/27 00:58:50;;;;;;;21.83;16.60;;;21.70;99.90;;;;;;5037042;28;20692;-60
2022/08/27 01:01:22;;;;;;;20.25;16.83;;;21.70;99.90;;;;;;5036627;28;20241;-60
2022/08/27 01:03:52;;;;;;;18.85;16.85;;;21.80;99.90;;;;;;5036873;28;20206;-61
2022/08/27 01:06:20;;;;;;;19.50;15.68;;;21.80;99.90;;;;;;5036560;28;20294;-59
2022/08/27 01:08:52;;;;;;;19.75;16.40;;;21.80;99.90;;;;;;5037152;28;20229;-58
2022/08/27 01:11:20;;;;;;;19.42;17.42;;;21.80;99.90;;;;;;5036532;28;20238;-58
2022/08/27 01:13:47;;;;;;;20.00;17.60;;;21.80;99.90;;;;;;5037837;28;20293;-59
2022/08/27 01:16:18;;;;;;;22.00;19.02;;;21.90;99.90;;;;;;5037924;28;20279;-59
2022/08/27 01:18:47;;;;;;;20.58;17.60;;;21.90;99.90;;;;;;5037425;28;20294;-59
2022/08/27 01:21:22;;;;;;;19.38;17.27;;;21.90;99.90;;;;;;5037700;28;20233;-59
2022/08/27 01:23:55;;;;;;;21.50;17.08;;;21.80;99.90;;;;;;5036598;28;20242;-60
2022/08/27 01:26:25;;;;;;;22.98;17.45;;;21.80;99.90;;;;;;5037313;28;20281;-59
2022/08/27 01:28:52;;;;;;;19.67;16.70;;;21.80;99.90;;;;;;5036895;28;20206;-60
2022/08/27 01:31:20;;;;;;;21.98;16.92;;;21.80;99.90;;;;;;5036471;28;20237;-59
2022/08/27 01:33:55;;;;;;;19.58;17.52;;;21.90;99.90;;;;;;5038310;28;20245;-60
2022/08/27 01:36:22;;;;;;;21.15;16.75;;;21.90;99.90;;;;;;5037520;28;20253;-59
2022/08/27 01:38:50;;;;;;;21.83;16.90;;;21.90;99.90;;;;;;5039059;28;20218;-60
2022/08/27 01:41:17;;;;;;;20.50;17.55;;;22.00;99.90;;;;;;5036919;28;20702;-60
2022/08/27 01:43:46;;;;;;;22.02;17.17;;;22.00;99.90;;;;;;5037534;28;20260;-59
2022/08/27 01:46:13;;;;;;;23.67;17.88;;;22.00;99.90;;;;;;5037446;28;20210;-60
2022/08/27 01:48:40;;;;;;;19.80;17.10;;;22.10;99.90;;;;;;5037933;28;20210;-59
2022/08/27 01:51:08;;;;;;;20.23;16.48;;;22.10;99.90;;;;;;5037783;28;20222;-60
2022/08/27 01:53:35;;;;;;;21.75;18.27;;;22.10;99.90;;;;;;5036437;28;20681;-60
2022/08/27 01:56:03;;;;;;;22.45;17.85;;;22.10;99.90;;;;;;5036593;28;20209;-59
2022/08/27 01:58:32;;;;;;;22.40;18.25;;;22.10;99.90;;;;;;5037434;28;20202;-61
2022/08/27 02:01:04;;;;;;;20.52;17.48;;;22.10;99.90;;;;;;5036521;28;20222;-60
2022/08/27 02:03:30;;;;;;;21.48;16.98;;;22.10;99.90;;;;;;5036230;28;20304;-60
2022/08/27 02:05:57;;;;;;;23.77;17.60;;;22.10;99.90;;;;;;5035781;28;20586;-60
2022/08/27 02:08:24;;;;;;;18.55;16.58;;;22.00;99.90;;;;;;5036086;28;20296;-60
2022/08/27 02:10:51;;;;;;;19.30;16.77;;;22.10;99.90;;;;;;5037316;28;20238;-60
2022/08/27 02:13:18;;;;;;;19.92;17.40;;;22.10;99.90;;;;;;5037862;28;20515;-60
2022/08/27 02:15:45;;;;;;;23.23;17.23;;;22.10;99.90;;;;;;5036909;28;20210;-60
2022/08/27 02:18:14;;;;;;;22.38;16.95;;;22.20;99.90;;;;;;5037292;28;20724;-60
2022/08/27 02:20:42;;;;;;;21.60;17.08;;;22.20;99.90;;;;;;5036542;28;20236;-59
2022/08/27 02:23:09;;;;;;;21.83;17.80;;;22.30;99.90;;;;;;5036989;28;20214;-60
2022/08/27 02:25:37;;;;;;;20.77;16.77;;;22.30;99.90;;;;;;5036589;28;20222;-60
2022/08/27 02:28:04;;;;;;;21.02;17.67;;;22.30;99.90;;;;;;5037795;28;20297;-59
2022/08/27 02:30:33;;;;;;;22.02;17.95;;;22.20;99.90;;;;;;5037810;28;20226;-59
2022/08/27 02:33:01;;;;;;;20.83;18.35;;;22.30;99.90;;;;;;5038195;28;20206;-60
2022/08/27 02:35:31;;;;;;;22.85;18.20;;;22.30;99.90;;;;;;5037580;28;20216;-60
2022/08/27 02:37:58;;;;;;;21.48;18.15;;;22.30;99.90;;;;;;5036937;28;20581;-59
2022/08/27 02:40:26;;;;;;;22.42;19.42;;;22.30;99.90;;;;;;5037442;28;20793;-60
2022/08/27 02:42:53;;;;;;;20.83;18.67;;;22.30;99.90;;;;;;5036791;28;20639;-60
2022/08/27 02:45:21;;;;;;;20.13;18.02;;;22.30;99.90;;;;;;5036555;28;20240;-59
2022/08/27 02:47:48;;;;;;;21.42;19.23;;;22.30;99.90;;;;;;5036327;28;20266;-60
2022/08/27 02:50:15;;;;;;;25.08;19.88;;;22.20;99.90;;;;;;5036144;28;20250;-60
2022/08/27 02:52:45;;;;;;;22.92;19.40;;;22.20;99.90;;;;;;5035183;28;20214;-60
2022/08/27 02:55:13;;;;;;;22.90;19.05;;;22.20;99.90;;;;;;5034830;28;20249;-59
2022/08/27 02:57:41;;;;;;;24.63;18.73;;;22.20;99.90;;;;;;5035589;28;20222;-59
2022/08/27 03:00:11;;;;;;;22.10;19.58;;;22.20;99.90;;;;;;5038247;28;20216;-60
2022/08/27 03:02:38;;;;;;;21.38;19.10;;;22.20;99.90;;;;;;5040720;28;20218;-59
2022/08/27 03:05:07;;;;;;;23.88;19.27;;;22.20;99.90;;;;;;5039908;28;20229;-60
2022/08/27 03:07:34;;;;;;;22.60;19.55;;;22.20;99.90;;;;;;5041358;28;20294;-60
2022/08/27 03:10:02;;;;;;;21.23;18.95;;;22.20;99.90;;;;;;5040747;28;20681;-59
2022/08/27 03:12:29;;;;;;;21.92;19.05;;;22.10;99.90;;;;;;5042195;28;20222;-60
2022/08/27 03:14:56;;;;;;;21.38;19.08;;;22.00;99.90;;;;;;5040646;28;20277;-60
2022/08/27 03:20:11;;;;;;;22.63;19.92;;;22.10;99.90;;;;;;5041971;28;20201;-60
2022/08/27 03:22:38;;;;;;;23.13;19.15;;;22.20;99.90;;;;;;5041757;28;20210;-60
2022/08/27 03:25:08;;;;;;;22.92;20.13;;;22.20;99.90;;;;;;5040956;28;20232;-60
2022/08/27 03:27:35;;;;;;;21.92;19.70;;;22.30;99.90;;;;;;5041526;28;20674;-60
2022/08/27 03:30:02;;;;;;;22.70;20.17;;;22.30;99.90;;;;;;5040844;28;20579;-60
2022/08/27 03:32:29;;;;;;;24.33;20.23;;;22.30;99.90;;;;;;5040270;28;20789;-60
2022/08/27 03:34:57;;;;;;;25.20;21.60;;;22.40;99.90;;;;;;5041537;28;20586;-60
2022/08/27 03:37:25;;;;;;;23.13;20.58;;;22.40;99.90;;;;;;5041920;28;20301;-60
2022/08/27 03:39:52;;;;;;;25.83;21.55;;;22.40;99.90;;;;;;5040839;28;20237;-59
2022/08/27 03:42:21;;;;;;;24.77;22.17;;;22.40;99.90;;;;;;5041151;28;20289;-60
2022/08/27 03:44:48;;;;;;;26.88;22.83;;;22.40;99.90;;;;;;5039504;28;20210;-59
2022/08/27 03:47:14;;;;;;;24.25;21.75;;;22.30;99.90;;;;;;5040958;28;20773;-60
2022/08/27 03:49:41;;;;;;;25.45;22.00;;;22.30;99.90;;;;;;5041084;28;20221;-60
2022/08/27 03:52:08;;;;;;;26.38;22.52;;;22.30;99.90;;;;;;5042120;28;20226;-60
2022/08/27 03:54:36;;;;;;;27.23;21.73;;;22.20;99.90;;;;;;5040532;28;20245;-60
2022/08/27 03:57:04;;;;;;;24.95;21.15;;;22.20;99.90;;;;;;5039314;28;20226;-60
2022/08/27 03:59:32;;;;;;;25.48;22.77;;;22.20;99.90;;;;;;5038908;28;20269;-60
2022/08/27 04:02:00;;;;;;;25.73;21.52;;;22.20;99.90;;;;;;5038703;28;20226;-60
2022/08/27 04:04:27;;;;;;;23.98;21.23;;;22.20;99.90;;;;;;5038485;28;20607;-60
2022/08/27 04:06:54;;;;;;;25.13;21.35;;;22.20;99.90;;;;;;5038582;28;20214;-60
2022/08/27 04:09:21;;;;;;;23.30;20.80;;;22.10;99.90;;;;;;5038857;28;20281;-60
2022/08/27 04:11:48;;;;;;;22.50;20.10;;;22.10;99.90;;;;;;5037704;28;20340;-60
2022/08/27 04:14:15;;;;;;;25.83;21.85;;;22.10;99.90;;;;;;5037313;28;20202;-60
2022/08/27 04:16:43;;;;;;;23.75;20.33;;;22.10;99.90;;;;;;5036857;28;20274;-60
2022/08/27 04:19:11;;;;;;;24.85;21.35;;;22.20;99.90;;;;;;5036468;28;20230;-61
2022/08/27 04:21:38;;;;;;;23.02;20.58;;;22.20;99.90;;;;;;5036872;28;20722;-60
2022/08/27 04:24:05;;;;;;;23.30;20.70;;;22.20;99.90;;;;;;5036594;28;20209;-60
2022/08/27 04:26:32;;;;;;;24.80;21.35;;;22.20;99.90;;;;;;5036280;28;20206;-60
2022/08/27 04:28:59;;;;;;;24.98;20.77;;;22.20;99.90;;;;;;5036647;28;20203;-60
2022/08/27 04:31:26;;;;;;;24.80;20.02;;;22.10;99.90;;;;;;5036755;28;20230;-60
2022/08/27 04:33:54;;;;;;;22.92;20.50;;;22.10;99.90;;;;;;5038094;28;20199;-60
2022/08/27 04:36:21;;;;;;;22.30;19.52;;;22.10;99.90;;;;;;5037043;28;20217;-60
2022/08/27 04:38:48;;;;;;;22.63;19.45;;;22.00;99.90;;;;;;5036759;28;20222;-60
2022/08/27 04:41:21;;;;;;;24.38;20.33;;;22.00;99.90;;;;;;5037691;28;20226;-60
2022/08/27 04:43:50;;;;;;;23.98;20.10;;;21.90;99.90;;;;;;5037417;28;20229;-60
2022/08/27 04:46:22;;;;;;;23.23;20.52;;;21.90;99.90;;;;;;5037322;28;20268;-60
2022/08/27 04:48:49;;;;;;;23.75;20.27;;;21.80;99.90;;;;;;5037996;28;20573;-60
2022/08/27 04:51:17;;;;;;;24.63;20.90;;;21.80;99.90;;;;;;5037636;28;20706;-60
2022/08/27 04:53:44;;;;;;;22.15;19.77;;;21.80;99.90;;;;;;5037072;28;20210;-60
2022/08/27 04:56:14;;;;;;;23.88;21.00;;;21.80;99.90;;;;;;5037070;28;20206;-61
2022/08/27 04:58:42;;;;;;;22.63;20.23;;;21.80;99.90;;;;;;5037130;28;20630;-60
2022/08/27 05:01:14;;;;;;;22.40;20.05;;;21.90;99.90;;;;;;5037019;28;20282;-61
2022/08/27 05:03:41;;;;;;;23.10;20.17;;;21.90;99.90;;;;;;5036858;28;20285;-61
2022/08/27 05:06:08;;;;;;;24.63;20.45;;;22.00;99.90;;;;;;5037515;28;20210;-61
2022/08/27 05:08:36;;;;;;;23.77;20.50;;;22.00;99.90;;;;;;5037887;28;20210;-61
2022/08/27 05:11:08;;;;;;;23.30;19.70;;;22.00;99.90;;;;;;5037853;28;20238;-60
2022/08/27 05:13:35;;;;;;;25.05;21.25;;;22.00;99.90;;;;;;5037828;28;20580;-61
2022/08/27 05:16:03;;;;;;;26.08;22.23;;;22.00;99.90;;;;;;5038665;28;20213;-60
2022/08/27 05:18:31;;;;;;;25.00;21.98;;;22.00;99.90;;;;;;5038087;28;20599;-61
2022/08/27 05:20:58;;;;;;;26.65;22.00;;;21.90;99.90;;;;;;5037112;28;20232;-61
2022/08/27 05:23:26;;;;;;;24.63;21.40;;;22.00;99.90;;;;;;5036931;28;20210;-61
2022/08/27 05:25:55;;;;;;;23.48;20.52;;;22.00;99.90;;;;;;5038007;28;20225;-60
2022/08/27 05:28:24;;;;;;;24.40;20.42;;;22.00;99.90;;;;;;5037996;28;20271;-61
2022/08/27 05:30:54;;;;;;;23.05;20.58;;;22.00;99.90;;;;;;5037584;28;20299;-61
2022/08/27 05:33:23;;;;;;;24.63;21.75;;;22.10;99.90;;;;;;5037574;28;20217;-60
2022/08/27 05:35:53;;;;;;;26.33;22.23;;;22.20;99.90;;;;;;5038016;28;20201;-60
2022/08/27 05:38:20;;;;;;;28.10;23.13;;;22.30;99.90;;;;;;5038672;28;20245;-59
2022/08/27 05:40:48;;;;;;;24.77;21.58;;;22.30;99.90;;;;;;5039579;28;20237;-59
2022/08/27 05:43:18;;;;;;;23.05;20.55;;;22.40;99.90;;;;;;5038984;28;20568;-60
2022/08/27 05:45:47;;;;;;;24.10;21.45;;;22.40;99.90;;;;;;5037990;28;20205;-60
2022/08/27 05:48:15;;;;;;;25.70;20.88;;;22.40;99.90;;;;;;5037745;28;20686;-59
2022/08/27 05:50:43;;;;;;;27.38;22.92;;;22.50;99.90;;;;;;5036900;28;20313;-60
2022/08/27 05:53:12;;;;;;;25.05;21.55;;;22.50;99.90;;;;;;5036840;28;20218;-59
2022/08/27 05:55:42;;;;;;;24.77;21.63;;;22.30;99.90;;;;;;5037762;28;20282;-59
2022/08/27 06:01:03;;;;;;;26.85;22.20;;;22.30;99.90;;;;;;5037234;28;20249;-59
2022/08/27 06:01:05;;;;;;;23.80;20.42;;;22.10;99.90;;;;;;5037698;28;20226;-60
2022/08/27 06:03:32;;;;;;;25.42;22.00;;;22.10;99.90;;;;;;5037035;28;20229;-60
2022/08/27 06:06:03;;;;;;;26.02;22.75;;;22.10;99.90;;;;;;5036846;28;20214;-60
2022/08/27 06:08:30;;;;;;;24.60;21.38;;;22.10;99.90;;;;;;5036259;28;20269;-60
2022/08/27 06:11:00;;;;;;;24.40;21.80;;;22.30;99.90;;;;;;5035604;28;20710;-60
2022/08/27 06:13:27;;;;;;;25.20;21.92;;;22.40;99.90;;;;;;5034938;28;20289;-59
2022/08/27 06:16:02;;;;;;;29.92;22.85;;;22.50;99.90;;;;;;5035057;28;20305;-59
2022/08/27 06:18:29;;;;;;;27.13;22.60;;;22.60;99.90;;;;;;5035123;28;20240;-59
2022/08/27 06:20:56;;;;;;;25.15;21.83;;;22.60;99.90;;;;;;5034591;28;20233;-59
2022/08/27 06:23:24;;;;;;;24.55;21.90;;;22.60;99.90;;;;;;5034005;28;20214;-58
2022/08/27 06:25:50;;;;;;;27.08;21.98;;;22.60;99.90;;;;;;5034553;28;20214;-59
2022/08/27 06:28:20;;;;;;;25.08;21.30;;;22.50;99.90;;;;;;5033951;28;20215;-59
2022/08/27 06:30:46;;;;;;;24.98;22.30;;;22.30;99.90;;;;;;5033404;28;20757;-59
2022/08/27 06:33:15;;;;;;;24.95;20.95;;;22.40;99.90;;;;;;5033074;28;20210;-59
2022/08/27 06:35:42;;;;;;;23.48;20.50;;;22.50;99.90;;;;;;5032826;28;20728;-59
2022/08/27 06:38:09;;;;;;;23.85;21.35;;;22.60;99.90;;;;;;5033027;28;20244;-59
2022/08/27 06:40:39;;;;;;;23.77;21.23;;;22.60;99.90;;;;;;5032611;28;20235;-58
2022/08/27 06:43:06;;;;;;;24.65;21.33;;;22.40;99.90;;;;;;5033048;28;20256;-59
2022/08/27 06:45:38;;;;;;;24.30;21.73;;;22.50;99.90;;;;;;5032299;28;20705;-58
2022/08/27 06:48:05;;;;;;;26.90;21.50;;;22.60;99.90;;;;;;5032818;28;20668;-59
2022/08/27 06:50:39;;;;;;;28.83;21.73;;;22.60;99.90;;;;;;5032682;28;20237;-59
2022/08/27 06:53:06;;;;;;;27.67;24.67;;;22.60;99.90;;;;;;5032722;28;20214;-59
2022/08/27 06:55:33;;;;;;;23.88;21.08;;;22.60;99.90;;;;;;5032726;28;20237;-59
2022/08/27 06:58:00;;;;;;;27.80;24.48;;;22.70;99.90;;;;;;5030134;28;20464;-60
2022/08/27 07:00:27;;;;;;;26.50;21.83;;;22.70;99.90;;;;;;5032141;28;20222;-61
2022/08/27 07:02:53;;;;;;;25.30;22.63;;;22.70;99.90;;;;;;5033107;28;20210;-64
2022/08/27 07:05:21;;;;;;;24.75;21.40;;;22.60;99.90;;;;;;5032763;28;20213;-60
2022/08/27 07:07:49;;;;;;;27.70;22.17;;;22.70;99.90;;;;;;5032778;28;20212;-57
2022/08/27 07:10:16;;;;;;;27.23;21.80;;;22.70;99.90;;;;;;5032661;28;20268;-57
2022/08/27 07:12:43;;;;;;;27.45;22.13;;;22.70;99.90;;;;;;5032579;28;20206;-57
2022/08/27 07:15:10;;;;;;;28.00;22.35;;;22.70;99.90;;;;;;5033773;28;20202;-59
2022/08/27 07:17:39;;;;;;;29.20;22.38;;;22.70;99.90;;;;;;5034475;28;20615;-59
2022/08/27 07:20:08;;;;;;;30.42;22.20;;;22.70;99.90;;;;;;5034250;28;20230;-59
2022/08/27 07:22:35;;;;;;;22.83;20.33;;;22.70;99.90;;;;;;5034972;28;20210;-60
2022/08/27 07:25:04;;;;;;;25.67;21.75;;;22.70;99.90;;;;;;5034700;28;20206;-59
2022/08/27 07:27:31;;;;;;;26.67;22.00;;;22.80;99.90;;;;;;5034010;28;20256;-59
2022/08/27 07:29:58;;;;;;;32.50;22.42;;;22.70;99.90;;;;;;5034181;28;20710;-60
2022/08/27 07:32:25;;;;;;;28.13;22.27;;;22.50;99.90;;;;;;5034216;28;20742;-59
2022/08/27 07:34:52;;;;;;;24.67;22.08;;;22.40;99.90;;;;;;5034151;28;20213;-59
2022/08/27 07:37:21;;;;;;;27.70;22.25;;;22.20;99.90;;;;;;5033309;28;20210;-59
2022/08/27 07:39:47;;;;;;;24.88;21.65;;;22.30;99.90;;;;;;5033251;28;20276;-59
2022/08/27 07:45:00;;;;;;;27.13;22.38;;;22.50;99.90;;;;;;5033773;28;20221;-59
2022/08/27 07:47:27;;;;;;;23.05;19.13;;;22.90;99.90;;;;;;5035871;28;20206;-64
2022/08/27 07:49:53;;;;;;;30.05;21.88;;;23.40;99.90;;;;;;5035390;28;20710;-65
2022/08/27 07:52:20;;;;;;;22.48;19.65;;;23.90;99.90;;;;;;5036649;28;20213;-61
2022/08/27 07:54:47;;;;;;;27.65;21.08;;;24.10;99.90;;;;;;5036743;28;20256;-61
2022/08/27 07:57:16;;;;;;;27.77;21.33;;;24.50;99.90;;;;;;5036557;28;20297;-61
2022/08/27 07:59:42;;;;;;;27.98;21.13;;;24.50;99.90;;;;;;5036033;28;20229;-64
2022/08/27 08:02:11;;;;;;;27.98;22.23;;;24.70;99.90;;;;;;5037369;28;20253;-63
2022/08/27 08:04:38;;;;;;;25.10;21.35;;;24.50;99.90;;;;;;5037677;28;20264;-64
2022/08/27 08:07:05;;;;;;;31.20;22.95;;;24.40;99.90;;;;;;5038090;28;20206;-63
2022/08/27 08:09:32;;;;;;;30.55;23.63;;;24.20;99.90;;;;;;5037768;28;20203;-63
2022/08/27 08:11:59;;;;;;;26.73;22.90;;;23.90;99.90;;;;;;5037547;28;20713;-63
2022/08/27 08:14:27;;;;;;;25.17;20.92;;;23.70;99.90;;;;;;5037991;28;20230;-62
2022/08/27 08:16:58;;;;;;;26.20;22.05;;;23.60;99.90;;;;;;5038359;28;20297;-63
2022/08/27 08:19:26;;;;;;;26.58;22.35;;;23.30;99.90;;;;;;5038520;28;20232;-62
2022/08/27 08:21:53;;;;;;;27.13;23.08;;;23.10;99.90;;;;;;5038732;28;20753;-62
2022/08/27 08:24:20;;;;;;;27.08;23.00;;;22.90;99.90;;;;;;5039711;28;20298;-63
2022/08/27 08:26:47;;;;;;;28.15;25.13;;;22.80;99.90;;;;;;5038348;28;20210;-62
2022/08/27 08:29:14;;;;;;;26.98;24.00;;;22.70;99.90;;;;;;5038966;28;20202;-62
2022/08/27 08:31:43;;;;;;;28.60;23.67;;;22.80;99.90;;;;;;5037975;28;20237;-62
2022/08/27 08:34:11;;;;;;;26.30;22.30;;;22.90;99.90;;;;;;5037771;28;20202;-63
2022/08/27 08:36:38;;;;;;;37.58;25.63;;;22.90;99.90;;;;;;5036818;28;20744;-62
2022/08/27 08:39:04;;;;;;;35.03;26.33;;;22.80;99.90;;;;;;5037003;28;20694;-63
2022/08/27 08:41:39;;;;;;;44.47;27.00;;;22.30;99.90;;;;;;5037230;28;20229;-63
2022/08/27 08:44:14;;;;;;;37.30;28.98;;;21.70;99.90;;;;;;5036818;28;20214;-64
2022/08/27 08:46:48;;;;;;;30.42;26.48;;;21.30;99.90;;;;;;5036034;28;20212;-61
2022/08/27 08:49:27;;;;;;;31.98;27.30;;;21.20;99.90;;;;;;5035259;28;20209;-65
2022/08/27 08:52:02;;;;;;;31.02;27.13;;;21.00;99.90;;;;;;5035772;28;20233;-63
2022/08/27 08:54:32;;;;;;;35.72;28.23;;;21.00;99.90;;;;;;5035521;28;20216;-61
2022/08/27 08:57:04;;;;;;;35.83;28.55;;;21.00;99.90;;;;;;5032341;28;20209;-62
2022/08/27 08:59:35;;;;;;;34.78;27.20;;;20.90;99.90;;;;;;5034836;28;20216;-61
2022/08/27 09:02:04;;;;;;;32.22;27.48;;;20.80;99.90;;;;;;5035225;28;20249;-62
2022/08/27 09:04:31;;;;;;;30.92;26.55;;;20.90;99.90;;;;;;5036030;28;20644;-63
2022/08/27 09:07:02;;;;;;;28.63;25.48;;;20.90;99.90;;;;;;5034415;28;20210;-62
2022/08/27 09:09:37;;;;;;;34.70;28.27;;;20.80;99.90;;;;;;5034607;28;20206;-61
2022/08/27 09:12:14;;;;;;;31.58;26.15;;;20.90;99.90;;;;;;5034152;28;20623;-61
2022/08/27 09:14:46;;;;;;;36.17;27.58;;;21.00;99.90;;;;;;5033677;28;20205;-61
2022/08/27 09:17:14;;;;;;;34.10;28.55;;;21.20;99.90;;;;;;5033200;28;20214;-61
2022/08/27 09:19:41;;;;;;;39.70;29.73;;;21.30;99.90;;;;;;5033422;28;20233;-62
2022/08/27 09:22:15;;;;;;;36.25;30.73;;;21.50;99.90;;;;;;5033237;28;20748;-60
2022/08/27 09:24:52;;;;;;;37.05;30.95;;;21.70;99.90;;;;;;5033774;28;20674;-61
2022/08/27 09:27:20;;;;;;;36.50;29.60;;;21.70;99.90;;;;;;5033729;28;20268;-61
2022/08/27 09:29:49;;;;;;;38.28;30.75;;;21.60;99.90;;;;;;5034047;28;20213;-60
2022/08/27 09:32:23;;;;;;;39.10;29.85;;;21.70;99.90;;;;;;5034019;28;20202;-60
2022/08/27 09:34:50;;;;;;;33.67;27.90;;;21.70;99.90;;;;;;5034557;28;20268;-60
2022/08/27 09:37:20;;;;;;;32.22;27.98;;;21.70;99.90;;;;;;5034454;28;20699;-61
2022/08/27 09:39:49;;;;;;;34.13;27.10;;;21.80;99.90;;;;;;5035319;28;20244;-61
2022/08/27 09:42:29;;;;;;;36.45;28.00;;;21.90;99.90;;;;;;5035185;28;20206;-61
2022/08/27 09:44:57;;;;;;;32.75;26.45;;;22.10;99.90;;;;;;5034440;28;20740;-64
2022/08/27 09:47:26;;;;;;;30.23;26.73;;;22.20;99.90;;;;;;5034903;28;20671;-61
2022/08/27 09:50:05;;;;;;;27.73;24.35;;;22.40;99.90;;;;;;5033126;28;20486;-60
2022/08/27 09:52:34;;;;;;;29.42;23.85;;;22.40;99.90;;;;;;5034357;28;20594;-62
2022/08/27 09:55:01;;;;;;;25.58;22.60;;;22.50;99.90;;;;;;5035684;28;20206;-62
2022/08/27 09:57:34;;;;;;;26.30;22.55;;;22.60;99.90;;;;;;5035051;28;20302;-62
2022/08/27 10:00:01;;;;;;;25.65;22.88;;;22.70;99.90;;;;;;5034630;28;20218;-62
2022/08/27 10:02:29;;;;;;;24.35;21.75;;;22.90;99.90;;;;;;5036451;28;20203;-63
2022/08/27 10:05:01;;;;;;;23.65;21.15;;;23.00;99.90;;;;;;5035149;28;20214;-62
2022/08/27 10:07:37;;;;;;;27.13;23.50;;;23.10;99.90;;;;;;5035491;28;20220;-62
2022/08/27 10:10:11;;;;;;;23.67;21.02;;;23.20;99.90;;;;;;5034052;28;20268;-62
2022/08/27 10:12:50;;;;;;;22.60;20.23;;;23.20;99.90;;;;;;5035219;28;20217;-63
2022/08/27 10:15:18;;;;;;;24.20;20.25;;;23.40;99.90;;;;;;5036915;28;20210;-62
2022/08/27 10:17:55;;;;;;;22.98;20.58;;;23.60;99.90;;;;;;5036495;28;20206;-63
2022/08/27 10:20:29;;;;;;;23.13;20.75;;;23.80;99.90;;;;;;5036692;28;20694;-62
2022/08/27 10:23:07;;;;;;;22.80;19.83;;;23.90;99.90;;;;;;5035159;28;20229;-62
2022/08/27 10:25:43;;;;;;;22.52;20.17;;;24.00;99.90;;;;;;5035229;28;20568;-62
2022/08/27 10:28:22;;;;;;;22.20;19.15;;;24.10;99.90;;;;;;5033661;28;20238;-59
2022/08/27 10:31:08;;;;;;;21.13;18.92;;;24.30;99.90;;;;;;5034376;28;20222;-58
2022/08/27 10:33:44;;;;;;;21.55;19.10;;;24.40;99.90;;;;;;5034960;28;20210;-58
2022/08/27 10:36:20;;;;;;;21.90;17.73;;;24.40;99.90;;;;;;5034266;28;20229;-58
2022/08/27 10:38:55;;;;;;;21.83;18.77;;;24.20;99.90;;;;;;5035377;28;20205;-58
2022/08/27 10:41:27;;;;;;;20.50;18.38;;;24.20;99.90;;;;;;5036237;28;20247;-64
2022/08/27 10:44:16;;;;;;;25.20;19.63;;;24.30;99.90;;;;;;5035283;28;20408;-58
2022/08/27 10:46:59;;;;;;;19.73;17.63;;;24.30;99.90;;;;;;5034353;28;20241;-57
2022/08/27 10:49:36;;;;;;;21.08;18.60;;;24.50;99.90;;;;;;5035612;28;20203;-57
2022/08/27 10:52:11;;;;;;;20.13;17.95;;;24.60;99.90;;;;;;5034537;28;20248;-57
2022/08/27 10:54:43;;;;;;;20.90;18.77;;;24.70;99.90;;;;;;5033442;28;20210;-58
2022/08/27 10:57:17;;;;;;;20.98;19.00;;;24.70;99.90;;;;;;5033751;28;20202;-57
2022/08/27 10:59:53;;;;;;;20.20;18.20;;;24.70;99.90;;;;;;5033804;28;20592;-57
2022/08/27 11:02:28;;;;;;;22.30;20.05;;;24.60;99.90;;;;;;5033780;28;20206;-57
2022/08/27 11:05:02;;;;;;;23.58;20.92;;;24.70;99.90;;;;;;5033136;28;20729;-57
2022/08/27 11:07:34;;;;;;;23.45;20.92;;;24.50;99.90;;;;;;5033243;28;20283;-58
2022/08/27 11:10:05;;;;;;;22.67;20.27;;;24.50;99.90;;;;;;5033285;28;20289;-57
2022/08/27 11:12:36;;;;;;;24.02;20.00;;;24.40;99.90;;;;;;5033406;28;20206;-57
2022/08/27 11:15:09;;;;;;;22.48;19.92;;;24.40;99.90;;;;;;5033330;28;20214;-57
2022/08/27 11:17:41;;;;;;;21.60;19.30;;;24.40;99.90;;;;;;5033007;28;20207;-58
2022/08/27 11:20:13;;;;;;;22.15;19.83;;;24.40;99.90;;;;;;5033134;28;20230;-57
2022/08/27 11:22:46;;;;;;;24.13;20.75;;;24.40;99.90;;;;;;5037268;28;20217;-58
2022/08/27 11:25:27;;;;;;;23.83;19.30;;;24.40;99.90;;;;;;5036776;28;20210;-58
2022/08/27 11:27:56;;;;;;;23.55;21.05;;;24.20;99.90;;;;;;5036270;28;20228;-57
2022/08/27 11:30:28;;;;;;;22.25;19.85;;;24.20;99.90;;;;;;5037121;28;20231;-58
2022/08/27 11:33:08;;;;;;;23.13;20.27;;;24.10;99.90;;;;;;5037210;28;20233;-57
2022/08/27 11:35:51;;;;;;;21.90;19.50;;;24.10;99.90;;;;;;5036681;28;20210;-57
2022/08/27 11:38:41;;;;;;;23.83;21.00;;;24.20;99.90;;;;;;5037158;28;20233;-56
2022/08/27 11:41:27;;;;;;;22.48;20.02;;;24.20;99.90;;;;;;5036748;28;20260;-57
2022/08/27 11:43:55;;;;;;;23.08;20.38;;;24.30;99.90;;;;;;5037003;28;20238;-57
2022/08/27 11:46:24;;;;;;;22.60;19.75;;;24.30;99.90;;;;;;5036771;28;20210;-57
2022/08/27 11:48:57;;;;;;;23.45;20.83;;;24.30;99.90;;;;;;5035917;28;20284;-58
2022/08/27 11:51:32;;;;;;;23.63;20.85;;;24.30;99.90;;;;;;5036339;28;20309;-57
2022/08/27 11:54:01;;;;;;;24.00;21.27;;;24.40;99.90;;;;;;5035943;28;20237;-58
2022/08/27 11:56:41;;;;;;;25.02;21.30;;;24.40;99.90;;;;;;5035795;28;20206;-57
2022/08/27 11:59:19;;;;;;;23.60;20.90;;;24.50;99.90;;;;;;5035906;28;20210;-57
2022/08/27 12:01:46;;;;;;;33.13;24.83;;;24.40;99.90;;;;;;5036559;28;20233;-58
2022/08/27 12:04:32;;;;;;;23.73;21.00;;;24.40;99.90;;;;;;5036261;28;20297;-58
2022/08/27 12:07:04;;;;;;;25.20;19.92;;;24.40;99.90;;;;;;5035948;28;20571;-57
2022/08/27 12:09:52;;;;;;;23.65;20.63;;;24.50;99.90;;;;;;5035819;28;20611;-57
2022/08/27 12:12:24;;;;;;;23.10;20.55;;;24.50;99.90;;;;;;5036112;28;20213;-57
2022/08/27 12:14:59;;;;;;;23.50;20.27;;;24.60;99.90;;;;;;5036038;28;20605;-58
2022/08/27 12:17:34;;;;;;;22.77;20.38;;;24.70;99.90;;;;;;5036044;28;20599;-58
2022/08/27 12:20:11;;;;;;;24.55;20.33;;;24.70;99.90;;;;;;5035669;28;20253;-57
2022/08/27 12:25:34;;;;;;;23.60;20.45;;;24.90;99.90;;;;;;5036022;28;20190;-57
2022/08/27 12:28:04;;;;;;;24.73;22.13;;;25.00;99.90;;;;;;5035824;28;20217;-57
2022/08/27 12:30:34;;;;;;;27.58;22.33;;;25.10;99.90;;;;;;5035887;28;20254;-58
2022/08/27 12:33:10;;;;;;;23.75;20.15;;;25.00;99.90;;;;;;5035285;28;20202;-57
2022/08/27 12:35:43;;;;;;;22.70;20.08;;;25.10;99.90;;;;;;5035692;28;20259;-58
2022/08/27 12:38:15;;;;;;;21.45;19.13;;;25.20;99.90;;;;;;5035886;28;20202;-57
2022/08/27 12:40:48;;;;;;;26.23;20.75;;;25.40;99.90;;;;;;5035444;28;20241;-58
2022/08/27 12:43:19;;;;;;;25.52;22.60;;;25.50;99.90;;;;;;5035894;28;20233;-57
2022/08/27 12:45:49;;;;;;;21.90;19.50;;;25.50;99.90;;;;;;5035839;28;20283;-57
2022/08/27 12:48:20;;;;;;;22.55;20.10;;;25.60;99.90;;;;;;5035446;28;20234;-57
2022/08/27 12:50:52;;;;;;;22.38;19.95;;;25.50;99.90;;;;;;5035725;28;20242;-56